首页
METAR-TAF:

METAR-TAF

机场 :

重庆江北国际机场

重庆, 中华人民共和国

纬度: 29-31N, 经度: 106-29E, 海拔: 351米

当前天气观测

该预报发布于1小时和18分钟前的15:00 UTC
风速6节,风向北转东北
温度 8°C
湿度 76%
气压 1030 hPa
能見度: 8000
少量云层高于4000英尺

METAR: ZUCK 131500Z 02003MPS 8000 FEW040 08/04 Q1030 NOSIG

时间: 00:18 (16:18 UTC)

预报

该预报发布于7小时和17分钟前的09:01 UTC
预报有效从13日的 12点(UTC)到 14日的 12点(UTC)
风速6节,风向东转东北
能見度: 5000
散云层高于4000英尺
轻雾

TAF: ZUCK 130901Z 1312/1412 06003MPS 5000 BR SCT040 TX09/1407Z TN06/1322Z

超过4000个机场的气象观测和天气预报(METAR&TAF报告)。

可查询的气象台以黄色和红色小点在地图上表示。

将鼠标移到小点上方,可查看气象台名称。

然后点击查看天气观测和预报。

如需切换地图:点击带黑十字的绿色按钮放大地图;点击带横线的绿色按钮缩小地图;或者点击绿色箭头查看邻近地区的地图。


METAR-TAF: